Cherry Grove, Oregon
Current Conditions -  °F | °C
As of 3:53 PM on Wednesday 22 Oct 2014 (Local Time) from KHIO Reporting Station
Moderate Rain Moderate Rain  
Wind Chill: 56°   Ceiling: 4300
Heat Index: 56°   Visibility: 2mi
Dew Point: 55°   Wind: 5mph
Humidity: 97%   Direction: 190°S
Pressure: 29.71"   Gusts: NA
Location:  45.45°N, 123.24°W
Report Text: KHIO 222253Z 19004KT 2SM RA BR BKN043 OVC055 13/13 A2971 RMK AO2 SLP059 P0013 T01330128
Loading
Personal Weather Stations






























Interactive Weather Map
Tropical Storm Tracking
New forecast layout! Learn more

10-Day Weather Forecast

Advertisements
Track Severe Weather on mobile